Time;durP1;ratioP1;P1;durP2;ratioP2;P2;SDS_P1;SDS_P2;PMS_P1;PMS_P2;Temp;Humidity;BMP_temperature;BMP_pressure;BME280_temperature;BME280_humidity;BME280_pressure;Samples;Min_cycle;Max_cycle;Signal;HPM_P1;HPM_P2
2022/10/08 00:00:52;;;;;;;39.45;25.08;;;;;;;10.93;83.23;98984.93;1708127;84;25562;-57
2022/10/08 00:03:21;;;;;;;38.50;24.27;;;;;;;10.95;82.94;98977.22;1708364;84;26371;-57
2022/10/08 00:06:15;;;;;;;39.98;24.18;;;;;;;10.94;82.90;98982.43;1708148;83;25415;-57
2022/10/08 00:08:46;;;;;;;36.38;22.90;;;;;;;10.93;82.52;98982.77;1707330;84;28140;-57
2022/10/08 00:11:17;;;;;;;40.25;23.75;;;;;;;10.91;82.05;98982.50;1707951;84;25942;-57
2022/10/08 00:13:46;;;;;;;38.48;22.93;;;;;;;10.82;81.71;98982.97;1708166;84;25483;-57
2022/10/08 00:16:18;;;;;;;38.95;25.00;;;;;;;10.75;82.52;98986.69;1708249;84;26349;-57
2022/10/08 00:18:47;;;;;;;41.13;25.60;;;;;;;10.75;82.25;98983.41;1708345;84;25751;-57
2022/10/08 00:21:19;;;;;;;40.95;25.57;;;;;;;10.74;82.18;98981.76;1708367;84;27412;-57
2022/10/08 00:23:48;;;;;;;45.50;26.87;;;;;;;10.70;82.00;98978.02;1707833;84;25585;-57
2022/10/08 00:26:17;;;;;;;43.45;27.27;;;;;;;10.66;82.21;98975.64;1708271;84;25507;-57
2022/10/08 00:28:46;;;;;;;45.65;29.70;;;;;;;10.68;82.07;98975.34;1708216;84;25751;-57
2022/10/08 00:31:18;;;;;;;43.70;27.70;;;;;;;10.66;82.14;98973.73;1708427;84;25655;-57
2022/10/08 00:33:50;;;;;;;41.77;27.37;;;;;;;10.64;82.27;98974.58;1708360;84;27379;-57
2022/10/08 00:36:16;;;;;;;43.58;26.10;;;;;;;10.64;82.11;98974.58;1717549;83;25457;-57
2022/10/08 00:38:42;;;;;;;41.00;26.52;;;;;;;10.63;81.96;98968.86;1721700;83;25438;-57
2022/10/08 00:41:20;;;;;;;42.03;26.00;;;;;;;10.66;81.79;98970.98;1721735;83;25651;-57
2022/10/08 00:43:52;;;;;;;41.40;25.77;;;;;;;10.70;81.70;98966.23;1721590;83;25627;-58
2022/10/08 00:46:44;;;;;;;39.18;24.37;;;;;;;10.64;81.52;98959.51;1722190;83;27314;-57
2022/10/08 00:49:15;;;;;;;39.40;23.45;;;;;;;10.65;81.68;98962.49;1721150;83;25472;-57
2022/10/08 00:51:48;;;;;;;38.65;23.32;;;;;;;10.70;81.62;98956.09;1721748;83;25615;-57
2022/10/08 00:54:16;;;;;;;33.98;22.17;;;;;;;10.75;81.81;98951.06;1721200;83;25764;-57
2022/10/08 00:56:43;;;;;;;38.98;23.52;;;;;;;10.74;81.80;98953.56;1721619;83;25607;-57
2022/10/08 00:59:12;;;;;;;39.80;24.72;;;;;;;10.69;81.66;98955.02;1721512;83;28234;-57
2022/10/08 01:01:43;;;;;;;38.90;23.07;;;;;;;10.65;81.80;98941.94;1721468;83;25635;-57
2022/10/08 01:04:08;;;;;;;39.67;23.60;;;;;;;10.60;81.69;98940.69;1720916;83;25667;-57
2022/10/08 01:07:14;;;;;;;37.13;22.22;;;;;;;10.56;81.70;98936.13;1721561;83;25891;-58
2022/10/08 01:09:54;;;;;;;39.10;23.20;;;;;;;10.52;82.12;98931.27;1721346;83;25667;-57
2022/10/08 01:12:32;;;;;;;34.75;21.82;;;;;;;10.51;82.33;98937.05;1721885;83;27438;-57
2022/10/08 01:15:16;;;;;;;35.75;20.72;;;;;;;10.53;82.19;98945.20;1721072;83;25498;-57
2022/10/08 01:18:09;;;;;;;33.85;21.07;;;;;;;10.45;82.15;98934.92;1721744;83;25498;-57
2022/10/08 01:20:53;;;;;;;31.65;19.90;;;;;;;10.32;82.28;98931.09;1721529;83;25735;-57
2022/10/08 01:23:46;;;;;;;33.10;20.82;;;;;;;10.25;82.77;98930.12;1721522;83;25241;-57
2022/10/08 01:26:54;;;;;;;32.00;19.73;;;;;;;10.31;82.82;98924.55;1721878;83;28171;-57
2022/10/08 01:29:27;;;;;;;33.78;20.20;;;;;;;10.38;82.93;98923.02;1721149;83;25696;-57
2022/10/08 01:32:02;;;;;;;33.42;19.95;;;;;;;10.42;82.45;98925.95;1719851;83;25431;-57
2022/10/08 01:34:54;;;;;;;30.48;19.80;;;;;;;10.44;82.66;98921.53;1721578;83;25731;-57
2022/10/08 01:37:30;;;;;;;33.45;20.20;;;;;;;10.48;82.44;98925.33;1721575;83;25576;-57
2022/10/08 01:40:01;;;;;;;29.57;20.10;;;;;;;10.48;82.42;98918.48;1721303;83;27426;-57
2022/10/08 01:42:30;;;;;;;37.90;21.33;;;;;;;10.42;82.37;98924.03;1721690;83;25494;-57
2022/10/08 01:45:01;;;;;;;31.73;18.73;;;;;;;10.36;82.72;98923.88;1721636;83;25632;-57
2022/10/08 01:47:30;;;;;;;30.25;19.10;;;;;;;10.32;82.34;98916.03;1721879;83;34732;-57
2022/10/08 01:50:11;;;;;;;33.38;19.77;;;;;;;10.25;82.69;98912.31;1721929;83;25584;-57
2022/10/08 01:52:46;;;;;;;31.10;20.12;;;;;;;10.25;82.90;98919.16;1720865;83;28226;-57
2022/10/08 01:55:27;;;;;;;29.37;18.70;;;;;;;10.23;82.90;98915.94;1721260;83;25561;-57
2022/10/08 01:57:58;;;;;;;30.85;19.42;;;;;;;10.23;82.95;98908.27;1721487;83;25980;-57
2022/10/08 02:00:25;;;;;;;31.07;18.52;;;;;;;10.27;83.07;98912.02;1721872;83;25699;-57
2022/10/08 02:02:54;;;;;;;29.63;18.07;;;;;;;10.28;82.60;98909.55;1721348;83;25715;-57
2022/10/08 02:05:24;;;;;;;31.30;18.12;;;;;;;10.22;82.51;98914.30;1721558;83;28165;-57
2022/10/08 02:07:50;;;;;;;29.00;17.15;;;;;;;10.12;82.70;98909.03;1700829;83;25921;-57
2022/10/08 02:10:21;;;;;;;31.65;20.05;;;;;;;10.07;82.94;98909.94;1721199;83;25489;-57
2022/10/08 02:12:47;;;;;;;28.15;18.05;;;;;;;10.07;82.79;98904.47;1721751;83;25477;-57
2022/10/08 02:15:18;;;;;;;30.62;18.25;;;;;;;10.05;82.28;98906.72;1721686;83;25668;-57
2022/10/08 02:17:51;;;;;;;;;;;;;;;9.95;82.30;98913.73;1724312;83;27978;-57
2022/10/08 02:20:37;;;;;;;33.73;19.65;;;;;;;9.90;82.37;98911.91;1721401;83;25457;-57
2022/10/08 02:23:25;;;;;;;33.67;20.48;;;;;;;9.86;82.24;98910.34;1721638;83;25584;-57
2022/10/08 02:25:58;;;;;;;34.43;20.23;;;;;;;9.84;82.07;98902.98;1719449;83;25726;-57
2022/10/08 02:28:39;;;;;;;32.10;18.87;;;;;;;9.85;81.76;98909.28;1721661;83;25568;-57
2022/10/08 02:31:17;;;;;;;28.92;18.40;;;;;;;9.86;81.85;98903.50;1721361;83;27439;-57
2022/10/08 02:33:51;;;;;;;31.73;19.85;;;;;;;9.79;81.39;98903.09;1720690;83;25636;-57
2022/10/08 02:36:27;;;;;;;38.02;20.85;;;;;;;9.80;81.51;98903.34;1721491;83;25600;-58
2022/10/08 02:38:58;;;;;;;35.58;20.10;;;;;;;9.73;81.56;98901.57;1721153;83;25796;-59
2022/10/08 02:41:37;;;;;;;35.95;22.00;;;;;;;9.68;81.36;98900.28;1721836;83;25494;-58
2022/10/08 02:44:07;;;;;;;40.20;21.82;;;;;;;9.57;80.97;98900.47;1721601;83;27201;-59
2022/10/08 02:46:43;;;;;;;43.52;22.42;;;;;;;9.38;81.25;98898.59;1721387;83;25575;-58
2022/10/08 02:49:17;;;;;;;40.65;21.97;;;;;;;9.23;81.52;98907.88;1721529;83;25804;-57
2022/10/08 02:51:48;;;;;;;38.95;22.37;;;;;;;9.14;81.84;98902.28;1721527;83;25648;-57
2022/10/08 02:54:18;;;;;;;34.83;21.97;;;;;;;9.11;82.07;98901.51;1721806;83;25663;-57
2022/10/08 02:57:17;;;;;;;39.53;23.35;;;;;;;9.14;82.18;98901.46;1721509;83;27410;-57
2022/10/08 02:59:44;;;;;;;36.83;21.10;;;;;;;9.20;82.12;98902.18;1721324;83;25572;-57
2022/10/08 03:02:16;;;;;;;33.10;21.07;;;;;;;9.23;82.21;98906.51;1721410;83;25588;-57
2022/10/08 03:04:53;;;;;;;36.55;21.02;;;;;;;9.24;81.87;98898.55;1721688;83;25968;-57
2022/10/08 03:07:21;;;;;;;34.88;21.05;;;;;;;9.12;81.84;98903.67;1720590;83;25678;-57
2022/10/08 03:09:50;;;;;;;36.68;22.75;;;;;;;9.01;81.93;98904.41;1721453;83;27393;-57
2022/10/08 03:12:17;;;;;;;37.40;22.17;;;;;;;8.95;82.21;98904.23;1721239;83;25805;-57
2022/10/08 03:14:47;;;;;;;36.77;23.85;;;;;;;8.91;82.62;98907.55;1721347;83;25410;-57
2022/10/08 03:17:18;;;;;;;38.48;23.27;;;;;;;8.95;83.05;98902.86;1725129;83;25692;-57
2022/10/08 03:19:44;;;;;;;;;;;;;;;8.99;83.29;98902.52;1724162;83;25410;-57
2022/10/08 03:22:10;;;;;;;33.95;21.50;;;;;;;9.04;83.37;98896.41;1721642;83;27453;-57
2022/10/08 03:24:36;;;;;;;35.17;22.13;;;;;;;9.00;83.06;98895.94;1721879;83;25567;-58
2022/10/08 03:27:04;;;;;;;34.78;20.95;;;;;;;8.91;83.05;98895.26;1721567;83;25636;-58
2022/10/08 03:29:30;;;;;;;34.35;19.35;;;;;;;8.85;83.04;98896.98;1721428;83;25830;-59
2022/10/08 03:31:56;;;;;;;28.95;18.92;;;;;;;8.77;83.15;98899.28;1721283;83;25612;-59
2022/10/08 03:34:25;;;;;;;28.30;18.10;;;;;;;8.75;83.54;98897.96;1721179;83;26689;-59
2022/10/08 03:36:51;;;;;;;31.60;18.40;;;;;;;8.72;83.83;98897.98;1721139;83;25622;-57
2022/10/08 03:39:17;;;;;;;29.42;18.92;;;;;;;8.76;84.30;98899.03;1721205;83;25675;-57
2022/10/08 03:41:43;;;;;;;27.75;16.73;;;;;;;8.84;84.24;98898.89;1721725;83;25727;-57
2022/10/08 03:44:11;;;;;;;30.20;18.05;;;;;;;8.85;84.30;98899.17;1721609;83;25568;-57
2022/10/08 03:46:37;;;;;;;30.25;18.12;;;;;;;8.86;84.58;98902.70;1721233;83;28350;-57
2022/10/08 03:49:04;;;;;;;28.98;18.17;;;;;;;8.94;84.71;98902.05;1721441;83;25865;-57
2022/10/08 03:51:30;;;;;;;27.30;17.32;;;;;;;8.98;84.60;98897.59;1721513;83;25644;-58
2022/10/08 03:53:57;;;;;;;28.45;16.93;;;;;;;9.01;84.30;98902.47;1721672;83;25777;-58
2022/10/08 03:56:24;;;;;;;27.52;16.85;;;;;;;8.98;84.56;98896.80;1721529;83;25437;-57
2022/10/08 03:58:57;;;;;;;27.90;17.12;;;;;;;8.98;85.05;98896.23;1721546;83;28405;-58
2022/10/08 04:01:25;;;;;;;28.45;17.32;;;;;;;9.01;85.07;98887.44;1721394;83;25693;-57
2022/10/08 04:03:52;;;;;;;29.63;18.65;;;;;;;9.03;85.14;98892.60;1721538;83;25722;-57
2022/10/08 04:06:18;;;;;;;28.95;18.20;;;;;;;9.04;85.28;98884.68;1721527;83;25704;-57
2022/10/08 04:08:45;;;;;;;27.60;18.02;;;;;;;9.03;85.44;98887.95;1721498;83;25750;-57
2022/10/08 04:11:15;;;;;;;28.07;17.90;;;;;;;9.06;85.51;98884.38;1721900;83;27465;-57
2022/10/08 04:13:42;;;;;;;26.83;17.60;;;;;;;9.07;85.49;98883.27;1721634;83;25924;-57
2022/10/08 04:16:17;;;;;;;28.38;17.77;;;;;;;9.07;85.07;98885.42;1721107;83;25599;-57
2022/10/08 04:18:45;;;;;;;29.57;18.45;;;;;;;9.04;85.07;98882.73;1721526;83;26388;-57
2022/10/08 04:21:15;;;;;;;29.05;18.15;;;;;;;9.06;85.35;98885.75;1721503;83;25608;-57
2022/10/08 04:23:42;;;;;;;29.90;19.17;;;;;;;9.13;85.46;98879.34;1721820;83;28486;-58
2022/10/08 04:26:11;;;;;;;28.55;17.65;;;;;;;9.20;85.36;98881.67;1721057;83;27206;-57
2022/10/08 04:28:40;;;;;;;30.12;17.87;;;;;;;9.26;85.20;98877.74;1721441;83;25688;-57
2022/10/08 04:31:20;;;;;;;32.78;18.52;;;;;;;9.25;84.79;98872.03;1721349;83;25851;-57
2022/10/08 04:33:47;;;;;;;28.27;18.17;;;;;;;9.18;85.23;98869.67;1721515;83;25684;-57
2022/10/08 04:36:20;;;;;;;27.07;18.02;;;;;;;9.18;85.43;98868.30;1721362;83;28350;-57
2022/10/08 04:38:48;;;;;;;29.52;19.15;;;;;;;9.15;85.64;98861.52;1721363;83;25742;-57
2022/10/08 04:41:22;;;;;;;31.17;18.57;;;;;;;9.15;85.87;98859.33;1721567;83;25410;-57
2022/10/08 04:43:49;;;;;;;29.55;18.80;;;;;;;9.13;85.44;98866.46;1721363;83;25744;-57
2022/10/08 04:46:18;;;;;;;32.40;19.12;;;;;;;9.07;85.29;98861.39;1721640;83;25600;-58
2022/10/08 04:48:48;;;;;;;31.30;19.10;;;;;;;9.04;85.32;98860.88;1721420;83;27445;-57
2022/10/08 04:51:15;;;;;;;30.40;19.92;;;;;;;9.04;85.37;98864.18;1721383;83;25604;-58
2022/10/08 04:53:42;;;;;;;28.65;19.55;;;;;;;9.09;85.59;98864.08;1721143;83;25628;-57
2022/10/08 04:56:18;;;;;;;30.90;19.00;;;;;;;9.11;85.53;98864.60;1721776;83;26378;-57
2022/10/08 04:58:46;;;;;;;30.90;18.95;;;;;;;9.15;85.40;98864.80;1721451;83;25454;-57
2022/10/08 05:01:15;;;;;;;31.12;17.52;;;;;;;9.13;85.18;98873.87;1721663;83;27641;-58
2022/10/08 05:03:45;;;;;;;26.40;17.23;;;;;;;9.11;85.11;98877.45;1721362;83;25496;-58
2022/10/08 05:06:14;;;;;;;30.15;18.77;;;;;;;9.14;84.82;98879.04;1721653;83;35295;-58
2022/10/08 05:08:41;;;;;;;28.65;17.73;;;;;;;9.10;84.22;98876.62;1721105;83;25901;-58
2022/10/08 05:11:08;;;;;;;28.80;18.23;;;;;;;9.04;84.47;98878.64;1721548;83;25660;-57
2022/10/08 05:13:34;;;;;;;31.52;18.77;;;;;;;9.06;84.66;98874.81;1721273;83;27474;-59
2022/10/08 05:16:07;;;;;;;30.65;18.50;;;;;;;9.07;84.43;98875.06;1721619;83;25791;-58
2022/10/08 05:18:33;;;;;;;31.77;18.48;;;;;;;;;;1721578;83;25434;-58
2022/10/08 05:21:06;;;;;;;34.45;21.07;;;;;;;8.97;84.27;98872.75;1721559;83;25896;-58
2022/10/08 05:23:34;;;;;;;31.62;19.98;;;;;;;8.99;84.56;98876.55;1721628;83;25573;-57
2022/10/08 05:26:19;;;;;;;29.50;19.12;;;;;;;8.99;84.66;98875.19;1723064;83;27283;-57
2022/10/08 05:28:46;;;;;;;28.32;18.52;;;;;;;8.98;84.47;98871.63;1711764;83;25647;-59
2022/10/08 05:31:15;;;;;;;33.13;20.02;;;;;;;8.85;84.86;98872.39;1712419;83;25443;-58
2022/10/08 05:33:42;;;;;;;30.65;20.15;;;;;;;8.82;86.08;98875.17;1711906;83;25732;-58
2022/10/08 05:36:13;;;;;;;33.10;21.55;;;;;;;8.86;87.36;98874.00;1712133;83;25463;-58
2022/10/08 05:38:42;;;;;;;36.50;20.90;;;;;;;8.98;87.98;98874.94;1701680;82;27434;-58
2022/10/08 05:41:11;;;;;;;36.85;21.12;;;;;;;9.12;88.02;98882.62;1673949;84;25628;-59
2022/10/08 05:43:38;;;;;;;33.60;21.87;;;;;;;9.23;87.80;98875.06;1695123;84;25617;-58
2022/10/08 05:46:05;;;;;;;38.70;21.68;;;;;;;9.34;87.77;98881.72;1695481;84;25830;-58
2022/10/08 05:48:31;;;;;;;34.43;20.82;;;;;;;9.46;87.73;98886.16;1695453;84;25416;-59
2022/10/08 05:51:04;;;;;;;32.40;20.08;;;;;;;9.61;87.82;98881.51;1695396;84;27246;-58
2022/10/08 05:53:30;;;;;;;34.20;21.52;;;;;;;9.78;87.71;98891.88;1700059;83;25959;-57
2022/10/08 05:56:02;;;;;;;35.90;22.62;;;;;;;9.97;87.64;98897.28;1700290;84;25678;-58
2022/10/08 05:58:28;;;;;;;36.40;20.80;;;;;;;10.19;87.51;98893.57;1699902;84;25756;-57
2022/10/08 06:01:03;;;;;;;32.58;19.90;;;;;;;10.36;87.21;98893.75;1700242;84;25630;-57
2022/10/08 06:03:30;;;;;;;36.88;20.27;;;;;;;10.48;87.28;98902.05;1700212;84;27456;-58
2022/10/08 06:06:03;;;;;;;34.85;20.10;;;;;;;10.59;87.49;98900.69;1699925;84;25624;-57
2022/10/08 06:08:30;;;;;;;37.42;20.08;;;;;;;10.76;87.86;98897.84;1700114;84;25444;-58
2022/10/08 06:10:57;;;;;;;30.88;19.45;;;;;;;10.92;87.56;98898.32;1700169;84;25715;-58
2022/10/08 06:13:23;;;;;;;30.82;19.30;;;;;;;11.02;88.05;98899.99;1700269;84;25653;-57
2022/10/08 06:16:05;;;;;;;25.82;18.73;;;;;;;11.16;88.56;98895.28;1700201;84;28295;-59
2022/10/08 06:18:35;;;;;;;30.40;19.80;;;;;;;11.32;88.11;98894.08;1699778;84;25880;-58
2022/10/08 06:21:08;;;;;;;27.25;18.60;;;;;;;11.47;87.71;98898.36;1700515;84;25550;-59
2022/10/08 06:23:36;;;;;;;27.40;19.45;;;;;;;11.60;87.64;98898.05;1700211;84;25880;-58
2022/10/08 06:26:07;;;;;;;25.25;18.70;;;;;;;11.69;87.42;98888.48;1700422;84;25472;-58
2022/10/08 06:28:35;;;;;;;30.27;18.23;;;;;;;11.83;87.58;98895.25;1671415;85;27412;-57
2022/10/08 06:31:03;;;;;;;26.33;18.05;;;;;;;12.00;87.04;98896.68;1699794;84;27299;-58
2022/10/08 06:33:30;;;;;;;24.85;17.87;;;;;;;12.15;86.69;98899.59;1699845;84;25503;-59
2022/10/08 06:35:57;;;;;;;26.85;17.60;;;;;;;12.25;86.25;98891.62;1700476;84;26458;-58
2022/10/08 06:38:23;;;;;;;27.00;17.37;;;;;;;12.36;86.30;98894.89;1660064;83;25687;-58
2022/10/08 06:40:49;;;;;;;23.42;16.15;;;;;;;12.50;86.27;98893.94;1699885;84;27408;-59
2022/10/08 06:43:19;;;;;;;25.17;16.70;;;;;;;12.59;85.59;98891.20;1699790;84;25656;-58
2022/10/08 06:45:46;;;;;;;22.00;15.32;;;;;;;12.62;85.25;98892.75;1700263;84;25452;-59
2022/10/08 06:48:13;;;;;;;23.60;14.47;;;;;;;12.71;85.12;98891.94;1699955;84;25800;-59
2022/10/08 06:50:39;;;;;;;18.27;12.85;;;;;;;12.85;85.18;98897.28;1699843;84;25500;-58
2022/10/08 06:53:18;;;;;;;19.12;13.80;;;;;;;12.98;84.64;98891.39;1671644;85;26708;-57
2022/10/08 06:56:09;;;;;;;22.60;12.93;;;;;;;13.16;84.08;98894.94;1699970;84;25654;-58
2022/10/08 06:58:46;;;;;;;20.10;14.15;;;;;;;13.33;83.54;98887.23;1669507;85;25592;-57
2022/10/08 07:01:28;;;;;;;17.35;12.63;;;;;;;13.56;83.28;98891.17;1699904;84;25867;-58
2022/10/08 07:04:05;;;;;;;17.62;12.37;;;;;;;13.74;82.65;98891.92;1671874;85;25631;-58
2022/10/08 07:06:32;;;;;;;20.05;12.53;;;;;;;13.95;82.21;98891.19;1699966;84;27541;-58
2022/10/08 07:09:01;;;;;;;22.77;13.80;;;;;;;14.12;81.60;98898.57;1699866;84;27194;-58
2022/10/08 07:11:30;;;;;;;20.40;12.88;;;;;;;14.30;82.06;98901.22;1700177;84;25682;-58
2022/10/08 07:13:57;;;;;;;18.17;12.53;;;;;;;14.48;81.60;98901.14;1699832;84;25846;-58
2022/10/08 07:16:26;;;;;;;23.98;16.00;;;;;;;14.66;80.78;98897.69;1700243;84;25682;-58
2022/10/08 07:18:59;;;;;;;28.32;18.57;;;;;;;14.86;80.36;98902.20;1700196;84;27433;-58
2022/10/08 07:21:23;;;;;;;32.48;21.07;;;;;;;14.74;80.03;98905.08;1698461;84;25942;-58
2022/10/08 07:23:50;;;;;;;27.85;20.77;;;;;;;14.75;81.17;98896.23;1699878;84;25680;-58
2022/10/08 07:26:21;;;;;;;29.23;19.02;;;;;;;14.84;80.71;98891.50;1700531;84;25762;-59
2022/10/08 07:28:50;;;;;;;;;;;;;;;15.01;79.21;98894.69;1686985;85;25463;-57
2022/10/08 07:31:21;;;;;;;25.72;18.52;;;;;;;15.29;79.19;98881.67;1699409;84;28449;-57
2022/10/08 07:33:47;;;;;;;22.07;15.88;;;;;;;15.29;79.19;98881.67;1700211;84;25883;-57
2022/10/08 07:36:17;;;;;;;25.05;14.65;;;;;;;15.62;78.39;98893.03;1699830;84;25531;-58
2022/10/08 07:38:44;;;;;;;14.60;11.70;;;;;;;16.03;78.39;98889.89;1700073;84;25737;-57
2022/10/08 07:41:13;;;;;;;18.05;12.98;;;;;;;16.43;77.28;98891.72;1699867;84;25756;-57
2022/10/08 07:43:40;;;;;;;14.33;8.95;;;;;;;16.86;76.18;98890.83;1699949;84;27421;-58
2022/10/08 07:46:08;;;;;;;12.10;8.33;;;;;;;17.27;73.47;98894.97;1671594;85;25644;-59
2022/10/08 07:48:35;;;;;;;11.30;8.33;;;;;;;17.56;71.46;98890.80;1700112;84;25639;-60
2022/10/08 07:51:10;;;;;;;14.43;8.10;;;;;;;17.89;72.29;98891.04;1671631;85;25461;-57
2022/10/08 07:53:38;;;;;;;15.32;9.38;;;;;;;18.22;69.84;98886.29;1700216;84;25680;-58
2022/10/08 07:56:06;;;;;;;12.60;7.58;;;;;;;18.49;70.28;98889.30;1671993;85;28217;-57
2022/10/08 07:58:33;;;;;;;16.00;8.83;;;;;;;18.75;67.14;98894.82;1700035;84;25479;-59
2022/10/08 08:01:06;;;;;;;10.38;7.78;;;;;;;18.92;68.52;98888.05;1671546;85;25631;-57
2022/10/08 08:03:30;;;;;;;11.28;7.85;;;;;;;19.20;67.56;98893.16;1698337;84;25756;-58
2022/10/08 08:06:08;;;;;;;10.03;6.72;;;;;;;19.55;68.57;98892.84;1672092;85;25473;-58
2022/10/08 08:08:36;;;;;;;9.55;6.83;;;;;;;19.87;64.58;98891.80;1700231;84;27388;-59
2022/10/08 08:11:06;;;;;;;11.22;7.05;;;;;;;20.19;66.88;98888.77;1671800;85;25482;-58
2022/10/08 08:13:35;;;;;;;11.33;6.58;;;;;;;20.52;63.86;98885.87;1700370;84;25689;-58
2022/10/08 08:16:08;;;;;;;9.25;6.20;;;;;;;20.64;59.83;98879.87;1671838;85;25742;-59
2022/10/08 08:18:38;;;;;;;12.13;6.60;;;;;;;20.63;58.74;98877.67;1700011;84;25509;-57
2022/10/08 08:21:08;;;;;;;;;;;;;;;20.65;59.29;98878.69;1674385;85;28276;-60
2022/10/08 08:23:39;;;;;;;12.73;7.37;;;;;;;20.87;60.30;98889.51;1673836;84;25632;-58
2022/10/08 08:26:18;;;;;;;10.48;6.35;;;;;;;21.07;59.93;98881.02;1671993;85;25636;-58
2022/10/08 08:28:51;;;;;;;9.08;5.53;;;;;;;21.30;57.87;98874.53;1699759;84;25718;-58
2022/10/08 08:31:23;;;;;;;6.42;5.65;;;;;;;21.48;56.49;98879.48;1671749;85;25426;-60
2022/10/08 08:33:53;;;;;;;8.05;5.67;;;;;;;21.50;57.67;98883.48;1699198;83;27438;-59
2022/10/08 08:36:28;;;;;;;9.53;5.22;;;;;;;21.68;56.47;98878.08;1700251;83;25485;-57
2022/10/08 08:38:55;;;;;;;6.53;5.70;;;;;;;21.80;55.38;98876.23;1717814;83;25602;-57
2022/10/08 08:41:56;;;;;;;8.20;5.55;;;;;;;21.82;55.85;98878.05;1727504;83;26529;-58
2022/10/08 08:44:30;;;;;;;6.28;5.10;;;;;;;22.09;55.94;98877.05;1727163;83;25674;-59
2022/10/08 08:47:01;;;;;;;7.25;5.30;;;;;;;22.05;56.20;98881.23;1650716;86;28353;-58
2022/10/08 08:49:36;;;;;;;9.25;5.42;;;;;;;22.01;55.47;98880.37;1650809;86;25666;-58
2022/10/08 08:52:04;;;;;;;6.97;5.65;;;;;;;21.85;56.44;98885.66;1653585;85;25561;-60
2022/10/08 08:54:30;;;;;;;8.23;6.35;;;;;;;21.70;57.21;98883.27;1637833;86;25740;-62
2022/10/08 08:57:24;;;;;;;7.72;5.78;;;;;;;21.74;57.79;98885.52;1650746;86;25519;-62
2022/10/08 08:59:54;;;;;;;7.35;5.78;;;;;;;21.61;58.10;98882.20;1612902;89;27644;-61
2022/10/08 09:02:28;;;;;;;12.28;6.10;;;;;;;21.54;57.96;98879.34;1612890;89;25563;-60
2022/10/08 09:05:02;;;;;;;9.80;6.03;;;;;;;21.41;56.88;98881.01;1612825;88;25574;-60
2022/10/08 09:07:43;;;;;;;9.50;6.20;;;;;;;21.35;57.54;98876.15;1613119;88;25957;-59
2022/10/08 09:10:17;;;;;;;9.78;6.80;;;;;;;21.33;58.14;98880.74;1612524;89;25716;-58
2022/10/08 09:12:43;;;;;;;10.65;7.80;;;;;;;21.32;57.99;98881.91;1612831;88;29498;-58
2022/10/08 09:15:20;;;;;;;10.23;8.10;;;;;;;21.21;58.63;98887.97;1646894;87;25509;-58
2022/10/08 09:17:51;;;;;;;9.28;8.05;;;;;;;21.16;58.56;98880.13;1647337;87;25750;-58
2022/10/08 09:20:21;;;;;;;9.55;7.78;;;;;;;21.19;57.32;98884.16;1647223;87;26649;-57
2022/10/08 09:22:50;;;;;;;11.20;8.28;;;;;;;21.11;57.05;98883.86;1647424;87;25748;-59
2022/10/08 09:25:23;;;;;;;10.82;8.25;;;;;;;21.13;58.75;98886.47;1643937;87;28217;-58
2022/10/08 09:27:55;;;;;;;12.05;7.97;;;;;;;21.23;59.07;98875.25;1610905;89;25696;-58
2022/10/08 09:30:38;;;;;;;10.65;8.20;;;;;;;21.29;58.71;98883.48;1643697;87;25707;-62
2022/10/08 09:33:15;;;;;;;11.85;8.65;;;;;;;21.28;58.91;98885.25;1611712;89;25573;-58
2022/10/08 09:35:51;;;;;;;10.63;7.87;;;;;;;21.35;58.77;98883.92;1591681;84;25777;-58
2022/10/08 09:38:25;;;;;;;10.60;8.50;;;;;;;21.52;59.47;98888.09;1742844;81;27370;-58
2022/10/08 09:41:04;;;;;;;10.93;8.63;;;;;;;21.53;58.08;98888.91;1742866;82;25814;-58
2022/10/08 09:43:33;;;;;;;10.63;8.50;;;;;;;21.44;58.31;98877.45;1743512;82;25475;-61
2022/10/08 09:46:04;;;;;;;12.35;9.15;;;;;;;21.49;58.55;98884.67;1742990;82;25767;-62
2022/10/08 09:48:31;;;;;;;10.95;8.58;;;;;;;21.76;58.33;98885.17;1700686;84;25414;-58
2022/10/08 09:51:12;;;;;;;10.75;9.00;;;;;;;22.03;57.31;98879.41;1700586;84;27419;-59
2022/10/08 09:53:54;;;;;;;12.25;8.80;;;;;;;21.99;58.11;98876.58;1700657;84;25971;-62
2022/10/08 09:56:27;;;;;;;12.50;8.50;;;;;;;22.03;57.75;98881.61;1695830;84;25606;-59
2022/10/08 09:59:03;;;;;;;10.18;7.78;;;;;;;22.01;58.22;98878.39;1700796;84;26643;-59
2022/10/08 10:01:31;;;;;;;10.18;8.45;;;;;;;22.11;56.99;98877.48;1700419;84;25402;-62
2022/10/08 10:04:02;;;;;;;9.30;8.33;;;;;;;21.98;56.84;98872.19;1700875;84;27387;-63
2022/10/08 10:06:39;;;;;;;9.90;8.90;;;;;;;21.91;57.89;98871.53;1700668;84;25484;-59
2022/10/08 10:09:26;;;;;;;12.50;8.60;;;;;;;21.90;58.58;98876.09;1699875;84;25662;-62
2022/10/08 10:11:57;;;;;;;14.80;9.05;;;;;;;21.96;57.87;98868.98;1695453;84;25682;-57
2022/10/08 10:14:46;;;;;;;9.38;8.38;;;;;;;21.98;58.19;98872.19;1700993;83;25498;-57
2022/10/08 10:17:30;;;;;;;8.53;7.62;;;;;;;21.93;58.81;98869.75;1700602;84;27469;-58
2022/10/08 10:20:21;;;;;;;9.18;8.00;;;;;;;22.09;58.32;98856.94;1700654;84;27248;-58
2022/10/08 10:23:01;;;;;;;10.08;7.87;;;;;;;22.30;57.85;98857.67;1701250;84;25619;-58
2022/10/08 10:25:50;;;;;;;9.03;7.28;;;;;;;22.45;57.42;98854.95;1701152;84;25779;-60
2022/10/08 10:28:31;;;;;;;11.95;7.70;;;;;;;22.97;56.75;98849.83;1700666;84;25493;-58
2022/10/08 10:31:02;;;;;;;9.65;6.83;;;;;;;23.52;55.32;98839.61;1700522;84;27875;-58
2022/10/08 10:33:37;;;;;;;8.63;6.72;;;;;;;23.85;53.30;98843.83;1699542;84;25726;-58
2022/10/08 10:36:10;;;;;;;8.40;7.08;;;;;;;24.19;54.00;98842.63;1700476;84;25671;-58
2022/10/08 10:38:49;;;;;;;7.80;6.97;;;;;;;24.48;51.98;98840.36;1695727;84;26399;-58
2022/10/08 10:41:32;;;;;;;7.83;6.95;;;;;;;24.67;51.83;98839.12;1648929;86;25589;-62
2022/10/08 10:44:09;;;;;;;8.53;6.80;;;;;;;24.96;50.10;98836.81;1676121;85;27534;-58
2022/10/08 10:46:55;;;;;;;8.35;6.00;;;;;;;25.12;50.19;98830.12;1667799;86;25698;-58
2022/10/08 10:49:37;;;;;;;7.85;6.80;;;;;;;25.52;49.93;98829.86;1687771;85;25618;-59
2022/10/08 10:52:18;;;;;;;7.12;6.08;;;;;;;25.81;49.89;98824.05;1687640;84;25762;-58
2022/10/08 10:55:28;;;;;;;8.70;5.95;;;;;;;26.11;47.52;98823.19;1675831;85;25421;-59
2022/10/08 10:58:14;;;;;;;7.40;6.12;;;;;;;26.16;46.84;98815.70;1675909;85;29525;-57
2022/10/08 11:01:07;;;;;;;6.15;5.55;;;;;;;26.35;46.39;98815.53;1675708;85;25476;-58
2022/10/08 11:04:10;;;;;;;7.15;6.40;;;;;;;26.31;45.55;98816.38;1676205;85;25454;-59
2022/10/08 11:06:53;;;;;;;6.47;5.72;;;;;;;26.47;45.96;98812.79;1676173;85;26329;-57
2022/10/08 11:09:43;;;;;;;6.90;5.85;;;;;;;26.14;46.17;98819.52;1675884;85;25685;-58
2022/10/08 11:12:47;;;;;;;8.13;6.17;;;;;;;26.16;46.70;98813.48;1675896;85;29469;-61
2022/10/08 11:15:30;;;;;;;10.28;6.12;;;;;;;26.46;46.73;98814.02;1649078;85;25635;-61
2022/10/08 11:18:11;;;;;;;9.10;6.40;;;;;;;26.89;45.34;98814.09;1647144;87;25701;-62
2022/10/08 11:21:16;;;;;;;9.18;6.58;;;;;;;26.84;45.03;98805.52;1688680;85;25891;-58
2022/10/08 11:24:10;;;;;;;7.15;6.45;;;;;;;27.08;45.24;98812.65;1646602;87;25760;-58
2022/10/08 11:26:58;;;;;;;9.18;6.10;;;;;;;27.22;45.12;98806.02;1647872;87;27429;-58
2022/10/08 11:29:49;;;;;;;7.83;5.70;;;;;;;27.17;44.21;98799.48;1647870;86;25733;-60
2022/10/08 11:32:18;;;;;;;6.33;5.72;;;;;;;27.31;44.06;98804.08;1647119;87;25519;-58
2022/10/08 11:35:08;;;;;;;6.83;6.22;;;;;;;27.34;42.74;98797.60;1647864;87;25759;-59
2022/10/08 11:38:04;;;;;;;7.05;5.95;;;;;;;27.26;43.67;98801.13;1592675;90;25780;-59
2022/10/08 11:40:49;;;;;;;7.15;5.72;;;;;;;27.28;43.23;98796.48;1591714;88;27350;-57
2022/10/08 11:43:44;;;;;;;7.22;6.15;;;;;;;27.35;43.96;98795.00;1590377;90;25748;-62
2022/10/08 11:46:30;;;;;;;8.23;6.20;;;;;;;27.50;43.85;98798.97;1590794;90;25480;-60
2022/10/08 11:49:17;;;;;;;9.10;6.10;;;;;;;27.48;41.33;98789.55;1564762;91;25738;-58
2022/10/08 11:51:46;;;;;;;7.95;6.60;;;;;;;27.56;43.76;98798.08;1590594;90;25506;-58
2022/10/08 11:54:24;;;;;;;7.20;6.42;;;;;;;27.84;41.34;98788.19;1564975;91;27545;-59
2022/10/08 11:57:21;;;;;;;7.28;6.50;;;;;;;27.78;42.20;98782.87;1590551;90;25724;-58